Time;durP1;ratioP1;P1;durP2;ratioP2;P2;SDS_P1;SDS_P2;PMS_P1;PMS_P2;Temp;Humidity;BMP_temperature;BMP_pressure;BME280_temperature;BME280_humidity;BME280_pressure;Samples;Min_cycle;Max_cycle;Signal;HPM_P1;HPM_P2
2022/05/26 00:01:16;0.00;0.00;0.62;0.00;0.00;0.62;2.27;1.30;;;23.70;26.30;;;;;;2262453;61;20409;-61
2022/05/26 00:04:01;0.00;0.00;0.62;0.00;0.00;0.62;2.00;1.40;;;23.60;25.90;;;;;;2264723;61;20441;-61
2022/05/26 00:06:46;0.00;0.00;0.62;0.00;0.00;0.62;2.57;1.33;;;23.50;26.00;;;;;;2262685;61;20392;-61
2022/05/26 00:09:31;0.00;0.00;0.62;0.00;0.00;0.62;1.97;1.40;;;23.50;26.10;;;;;;2262674;61;20381;-64
2022/05/26 00:12:18;0.00;0.00;0.62;0.00;0.00;0.62;2.93;1.40;;;23.50;26.30;;;;;;2262492;61;20380;-64
2022/05/26 00:15:07;0.00;0.00;0.62;0.00;0.00;0.62;4.10;1.90;;;23.40;26.40;;;;;;2258211;61;20443;-64
2022/05/26 00:17:52;0.00;0.00;0.62;0.00;0.00;0.62;2.70;1.70;;;23.30;26.50;;;;;;2262135;61;20792;-65
2022/05/26 00:20:37;0.00;0.00;0.62;0.00;0.00;0.62;3.33;1.40;;;23.30;26.60;;;;;;2263514;61;20376;-64
2022/05/26 00:23:22;0.00;0.00;0.62;0.00;0.00;0.62;1.97;1.17;;;23.30;26.70;;;;;;2263437;61;20360;-63
2022/05/26 00:26:07;0.00;0.00;0.62;0.00;0.00;0.62;4.73;1.60;;;23.20;26.80;;;;;;2263322;61;20392;-67
2022/05/26 00:28:52;0.00;0.00;0.62;0.00;0.00;0.62;4.50;1.80;;;23.20;26.90;;;;;;2263022;61;20437;-65
2022/05/26 00:31:38;0.00;0.00;0.62;0.00;0.00;0.62;2.20;1.47;;;23.20;27.10;;;;;;2262312;61;20495;-65
2022/05/26 00:34:22;0.00;0.00;0.62;0.00;0.00;0.62;1.50;1.10;;;23.10;27.20;;;;;;2263418;61;20577;-64
2022/05/26 00:37:08;0.00;0.00;0.62;0.00;0.00;0.62;3.63;1.43;;;23.10;27.50;;;;;;2262271;61;20393;-64
2022/05/26 00:39:52;0.00;0.00;0.62;0.00;0.00;0.62;1.80;1.00;;;23.10;27.70;;;;;;2262570;61;21005;-63
2022/05/26 00:42:37;0.00;0.00;0.62;0.00;0.00;0.62;3.10;1.07;;;23.10;28.00;;;;;;2261003;61;20350;-60
2022/05/26 00:45:22;0.00;0.00;0.62;0.00;0.00;0.62;3.60;1.30;;;23.10;28.20;;;;;;2262986;61;20440;-66
2022/05/26 00:48:14;0.00;0.00;0.62;0.00;0.00;0.62;2.40;1.10;;;23.10;28.30;;;;;;2262837;61;20459;-59
2022/05/26 00:51:02;0.00;0.00;0.62;0.00;0.00;0.62;2.80;1.20;;;23.20;28.40;;;;;;2265420;58;20457;-56
2022/05/26 00:53:53;0.00;0.00;0.62;0.00;0.00;0.62;3.30;1.20;;;23.20;28.60;;;;;;2262341;61;20814;-60
2022/05/26 00:56:45;0.00;0.00;0.62;0.00;0.00;0.62;3.40;1.10;;;23.20;28.60;;;;;;2261485;61;20925;-55
2022/05/26 00:59:46;0.00;0.00;0.62;0.00;0.00;0.62;1.97;1.10;;;23.30;28.60;;;;;;2261905;61;20365;-54
2022/05/26 01:02:35;0.00;0.00;0.62;0.00;0.00;0.62;1.50;0.83;;;23.30;28.50;;;;;;2261833;61;20453;-59
2022/05/26 01:05:27;0.00;0.00;0.62;0.00;0.00;0.62;2.17;0.90;;;23.40;28.50;;;;;;2260731;61;20392;-59
2022/05/26 01:08:19;0.00;0.00;0.62;0.00;0.00;0.62;5.63;1.00;;;23.40;28.40;;;;;;2262658;61;20739;-60
2022/05/26 01:11:05;0.00;0.00;0.62;0.00;0.00;0.62;1.50;1.00;;;23.50;28.40;;;;;;2261332;61;20822;-58
2022/05/26 01:13:55;0.00;0.00;0.62;0.00;0.00;0.62;2.20;1.07;;;23.60;28.40;;;;;;2261669;61;20341;-59
2022/05/26 01:16:54;0.00;0.00;0.62;0.00;0.00;0.62;1.50;1.00;;;23.60;28.20;;;;;;2259517;61;20381;-58
2022/05/26 01:20:20;0.00;0.00;0.62;0.00;0.00;0.62;1.60;1.00;;;23.70;28.20;;;;;;2258673;61;20399;-56
2022/05/26 01:24:00;0.00;0.00;0.62;0.00;0.00;0.62;2.00;1.00;;;23.80;28.10;;;;;;2263933;61;20427;-61
2022/05/26 01:27:22;0.00;0.00;0.62;0.00;0.00;0.62;3.03;1.40;;;23.80;28.20;;;;;;2262704;61;20408;-62
2022/05/26 01:30:19;0.00;0.00;0.62;0.00;0.00;0.62;2.00;1.20;;;23.90;28.40;;;;;;2261143;61;20464;-63
2022/05/26 01:33:43;0.00;0.00;0.62;0.00;0.00;0.62;1.30;0.90;;;23.90;28.30;;;;;;2260143;61;20449;-63
2022/05/26 01:36:39;0.00;0.00;0.62;0.00;0.00;0.62;1.33;0.80;;;24.00;28.20;;;;;;2255829;61;20400;-63
2022/05/26 01:39:35;0.00;0.00;0.62;0.00;0.00;0.62;2.60;1.27;;;24.00;28.10;;;;;;2260707;61;20972;-63
2022/05/26 01:42:31;0.00;0.00;0.62;0.00;0.00;0.62;1.60;1.03;;;24.10;28.20;;;;;;2259934;61;20383;-63
2022/05/26 01:45:29;0.00;0.00;0.62;0.00;0.00;0.62;2.30;1.30;;;24.10;28.10;;;;;;2260669;61;20463;-62
2022/05/26 01:48:22;0.00;0.00;0.62;0.00;0.00;0.62;2.10;1.07;;;24.20;28.10;;;;;;2260526;61;20365;-63
2022/05/26 01:51:15;0.00;0.00;0.62;0.00;0.00;0.62;3.00;1.70;;;24.20;28.00;;;;;;2260178;61;20357;-63
2022/05/26 01:54:11;0.00;0.00;0.62;0.00;0.00;0.62;3.33;1.97;;;24.20;28.20;;;;;;2260194;61;20361;-65
2022/05/26 01:57:03;0.00;0.00;0.62;0.00;0.00;0.62;2.17;1.70;;;24.20;28.30;;;;;;2259545;61;20423;-65
2022/05/26 01:59:52;0.00;0.00;0.62;0.00;0.00;0.62;2.73;1.63;;;24.20;28.20;;;;;;2260697;61;20442;-67
2022/05/26 02:02:43;0.00;0.00;0.62;0.00;0.00;0.62;3.07;2.13;;;24.20;28.20;;;;;;2259875;61;20985;-65
2022/05/26 02:05:33;0.00;0.00;0.62;0.00;0.00;0.62;3.43;1.53;;;24.20;28.20;;;;;;2259987;61;20454;-67
2022/05/26 02:08:27;0.00;0.00;0.62;0.00;0.00;0.62;2.30;1.80;;;24.20;28.30;;;;;;2260064;61;20357;-65
2022/05/26 02:11:15;0.00;0.00;0.62;0.00;0.00;0.62;1.87;1.60;;;24.10;28.20;;;;;;2259524;61;20893;-65
2022/05/26 02:14:07;0.00;0.00;0.62;0.00;0.00;0.62;2.90;1.70;;;24.10;28.30;;;;;;2260140;61;20432;-64
2022/05/26 02:16:55;0.00;0.00;0.62;0.00;0.00;0.62;5.13;1.80;;;24.10;28.30;;;;;;2260498;61;20740;-66
2022/05/26 02:19:46;0.00;0.00;0.62;0.00;0.00;0.62;2.87;1.93;;;24.00;28.20;;;;;;2260007;61;20357;-63
2022/05/26 02:22:37;0.00;0.00;0.62;0.00;0.00;0.62;2.80;1.80;;;24.00;28.20;;;;;;2260159;61;20361;-65
2022/05/26 02:25:26;0.00;0.00;0.62;0.00;0.00;0.62;2.43;1.90;;;24.00;28.20;;;;;;2260316;61;20404;-65
2022/05/26 02:28:11;0.00;0.00;0.62;0.00;0.00;0.62;2.50;1.70;;;24.00;28.30;;;;;;2260371;61;20508;-65
2022/05/26 02:30:58;0.00;0.00;0.62;0.00;0.00;0.62;5.20;2.30;;;24.00;28.30;;;;;;2260085;61;20403;-64
2022/05/26 02:33:43;0.00;0.00;0.62;0.00;0.00;0.62;3.60;2.30;;;24.00;28.30;;;;;;2260089;61;20357;-65
2022/05/26 02:36:32;0.00;0.00;0.62;0.00;0.00;0.62;4.03;2.63;;;24.00;28.30;;;;;;2260334;61;20887;-69
2022/05/26 02:39:17;0.00;0.00;0.62;0.00;0.00;0.62;2.20;1.93;;;24.00;28.30;;;;;;2260649;61;20449;-65
2022/05/26 02:42:04;0.00;0.00;0.62;0.00;0.00;0.62;2.83;2.20;;;24.00;28.30;;;;;;2259234;61;20788;-65
2022/05/26 02:44:49;0.00;0.00;0.62;0.00;0.00;0.62;3.50;2.00;;;24.00;28.30;;;;;;2260672;61;20432;-64
2022/05/26 02:47:46;0.00;0.00;0.62;0.00;0.00;0.62;1.93;1.60;;;24.00;28.30;;;;;;2259770;61;20446;-64
2022/05/26 02:50:45;0.00;0.00;0.62;0.00;0.00;0.62;2.40;1.83;;;24.00;28.40;;;;;;2259946;61;20365;-64
2022/05/26 02:53:42;0.00;0.00;0.62;0.00;0.00;0.62;2.20;1.93;;;24.00;28.40;;;;;;2260535;61;20360;-63
2022/05/26 02:56:41;0.00;0.00;0.62;0.00;0.00;0.62;2.40;1.40;;;24.10;28.50;;;;;;2259501;61;20448;-69
2022/05/26 02:59:35;0.00;0.00;0.62;0.00;0.00;0.62;2.30;1.80;;;24.10;28.40;;;;;;2260662;61;20377;-64
2022/05/26 03:02:25;0.00;0.00;0.62;0.00;0.00;0.62;4.60;2.20;;;24.10;28.50;;;;;;2259547;61;20385;-64
2022/05/26 03:05:19;0.00;0.00;0.62;0.00;0.00;0.62;3.30;1.70;;;24.10;28.50;;;;;;2259965;61;20780;-65
2022/05/26 03:08:08;0.00;0.00;0.62;0.00;0.00;0.62;4.73;2.13;;;24.10;28.50;;;;;;2260661;61;20360;-63
2022/05/26 03:11:03;0.00;0.00;0.62;0.00;0.00;0.62;4.30;2.03;;;24.10;28.50;;;;;;2259229;61;20411;-64
2022/05/26 03:13:50;0.00;0.00;0.62;0.00;0.00;0.62;3.80;2.33;;;24.10;28.50;;;;;;2260335;61;20358;-64
2022/05/26 03:16:36;0.00;0.00;0.62;0.00;0.00;0.62;3.00;1.90;;;24.10;28.50;;;;;;2260120;61;20404;-65
2022/05/26 03:19:21;0.00;0.00;0.62;0.00;0.00;0.62;3.00;2.23;;;24.10;28.50;;;;;;2259759;61;20435;-64
2022/05/26 03:22:06;0.00;0.00;0.62;0.00;0.00;0.62;2.50;1.90;;;24.10;28.50;;;;;;2260311;61;20384;-64
2022/05/26 03:24:51;0.00;0.00;0.62;0.00;0.00;0.62;4.00;2.27;;;24.10;28.50;;;;;;2259682;61;20785;-65
2022/05/26 03:27:36;0.00;0.00;0.62;0.00;0.00;0.62;2.93;2.23;;;24.10;28.50;;;;;;2260109;61;20431;-64
2022/05/26 03:30:21;0.00;0.00;0.62;0.00;0.00;0.62;2.60;2.40;;;24.10;28.50;;;;;;2260011;61;20360;-64
2022/05/26 03:33:07;0.00;0.00;0.62;0.00;0.00;0.62;4.30;2.43;;;24.10;28.50;;;;;;2259454;61;20380;-64
2022/05/26 03:42:00;0.00;0.00;0.62;0.00;0.00;0.62;3.60;2.60;;;24.10;28.50;;;;;;2259640;61;20379;-64
2022/05/26 03:44:45;0.00;0.00;0.62;0.00;0.00;0.62;7.87;3.00;;;24.10;28.50;;;;;;2259715;61;20392;-66
2022/05/26 03:47:30;0.00;0.00;0.62;0.00;0.00;0.62;3.77;3.00;;;24.10;28.60;;;;;;2259541;61;20384;-65
2022/05/26 03:50:17;0.00;0.00;0.62;0.00;0.00;0.62;4.87;3.20;;;24.10;28.60;;;;;;2260254;61;20364;-65
2022/05/26 03:53:02;0.00;0.00;0.62;0.00;0.00;0.62;3.40;3.10;;;24.10;28.60;;;;;;2260410;61;20428;-65
2022/05/26 03:55:47;0.00;0.00;0.62;0.00;0.00;0.62;4.87;3.40;;;24.10;28.70;;;;;;2259885;61;20873;-63
2022/05/26 03:58:32;0.00;0.00;0.62;0.00;0.00;0.62;3.23;2.93;;;24.10;28.90;;;;;;2260374;61;20775;-64
2022/05/26 04:01:16;0.00;0.00;0.62;0.00;0.00;0.62;4.20;3.23;;;24.10;29.10;;;;;;2259367;61;20360;-64
2022/05/26 04:04:01;0.00;0.00;0.62;0.00;0.00;0.62;6.70;4.10;;;24.10;29.20;;;;;;2260132;61;20439;-64
2022/05/26 04:06:48;0.00;0.00;0.62;0.00;0.00;0.62;4.50;4.13;;;24.00;29.40;;;;;;2260095;61;20397;-66
2022/05/26 04:09:33;0.00;0.00;0.62;0.00;0.00;0.62;6.10;4.20;;;24.00;29.40;;;;;;2259833;61;20445;-64
2022/05/26 04:12:18;0.00;0.00;0.62;0.00;0.00;0.62;4.20;3.80;;;24.00;29.80;;;;;;2259283;61;20356;-64
2022/05/26 04:15:04;0.00;0.00;0.62;0.00;0.00;0.62;4.00;3.20;;;23.90;30.00;;;;;;2260247;61;20256;-63
2022/05/26 04:17:48;0.00;0.00;0.62;0.00;0.00;0.62;5.00;4.10;;;23.90;30.10;;;;;;2259726;61;20392;-63
2022/05/26 04:20:33;0.00;0.00;0.62;0.00;0.00;0.62;4.17;3.80;;;23.80;30.00;;;;;;2259970;61;20834;-66
2022/05/26 04:23:19;0.00;0.00;0.62;0.00;0.00;0.62;5.07;4.07;;;23.80;30.20;;;;;;2259838;61;20414;-64
2022/05/26 04:26:06;0.00;0.00;0.62;0.00;0.00;0.62;5.30;4.00;;;23.80;30.20;;;;;;2259696;61;20869;-63
2022/05/26 04:28:51;0.00;0.00;0.62;0.00;0.00;0.62;4.73;4.00;;;23.80;30.40;;;;;;2259967;61;20356;-63
2022/05/26 04:31:36;0.00;0.00;0.62;0.00;0.00;0.62;4.50;4.00;;;23.70;30.40;;;;;;2258681;61;20361;-63
2022/05/26 04:34:21;0.00;0.00;0.62;0.00;0.00;0.62;4.10;3.80;;;23.70;30.40;;;;;;2260152;61;20368;-63
2022/05/26 04:37:06;0.00;0.00;0.62;0.00;0.00;0.62;4.33;3.93;;;23.70;30.50;;;;;;2260111;61;20427;-63
2022/05/26 04:39:55;0.00;0.00;0.62;0.00;0.00;0.62;4.60;4.20;;;23.70;30.60;;;;;;2259520;61;20365;-63
2022/05/26 04:42:40;0.00;0.00;0.62;0.00;0.00;0.62;3.93;3.20;;;23.60;30.80;;;;;;2259761;61;20591;-67
2022/05/26 04:45:25;0.00;0.00;0.62;0.00;0.00;0.62;4.23;3.40;;;23.60;30.90;;;;;;2259906;61;20838;-63
2022/05/26 04:48:09;0.00;0.00;0.62;0.00;0.00;0.62;4.70;3.60;;;23.60;31.20;;;;;;2259552;61;20361;-63
2022/05/26 04:50:54;0.00;0.00;0.62;0.00;0.00;0.62;4.70;2.90;;;23.60;31.40;;;;;;2259847;61;20408;-64
2022/05/26 04:53:38;0.00;0.00;0.62;0.00;0.00;0.62;5.10;3.27;;;23.50;31.50;;;;;;2260001;61;20368;-64
2022/05/26 04:56:24;0.00;0.00;0.62;0.00;0.00;0.62;3.90;3.13;;;23.50;31.70;;;;;;2260217;61;20372;-63
2022/05/26 04:59:09;0.00;0.00;0.62;0.00;0.00;0.62;3.23;2.93;;;23.40;32.00;;;;;;2261017;61;20361;-63
2022/05/26 05:01:54;0.00;0.00;0.62;0.00;0.00;0.62;3.37;3.07;;;23.40;32.10;;;;;;2259909;61;20529;-63
2022/05/26 05:04:41;0.00;0.00;0.62;0.00;0.00;0.62;9.93;3.47;;;23.30;32.20;;;;;;2260424;61;20404;-63
2022/05/26 05:07:26;0.00;0.00;0.62;0.00;0.00;0.62;2.50;2.30;;;23.20;32.40;;;;;;2260789;61;20380;-62
2022/05/26 05:10:11;0.00;0.00;0.62;0.00;0.00;0.62;3.60;2.70;;;23.20;32.50;;;;;;2260255;61;20364;-63
2022/05/26 05:12:59;0.00;0.00;0.62;0.00;0.00;0.62;4.50;2.60;;;23.10;32.70;;;;;;2261079;61;20770;-62
2022/05/26 05:15:52;0.00;0.00;0.62;0.00;0.00;0.62;4.97;2.97;;;23.10;32.90;;;;;;2260586;61;20432;-63
2022/05/26 05:18:37;0.00;0.00;0.62;0.00;0.00;0.62;3.93;2.83;;;23.00;33.00;;;;;;2260261;61;20392;-63
2022/05/26 05:21:27;0.00;0.00;0.62;0.00;0.00;0.62;3.40;2.90;;;23.00;33.20;;;;;;2260855;61;20427;-63
2022/05/26 05:24:16;0.00;0.00;0.62;0.00;0.00;0.62;3.87;2.73;;;23.00;33.20;;;;;;2260282;61;20446;-63
2022/05/26 05:27:05;0.00;0.00;0.62;0.00;0.00;0.62;3.67;3.27;;;22.90;33.30;;;;;;2260593;61;20434;-63
2022/05/26 05:29:55;0.00;0.00;0.62;0.00;0.00;0.62;3.70;3.40;;;22.90;33.40;;;;;;2260465;61;20361;-63
2022/05/26 05:32:44;0.00;0.00;0.62;0.00;0.00;0.62;3.67;3.37;;;22.90;33.50;;;;;;2259531;61;20365;-63
2022/05/26 05:35:36;0.00;0.00;0.62;0.00;0.00;0.62;3.83;3.23;;;22.80;33.60;;;;;;2260982;61;20388;-63
2022/05/26 05:38:21;0.00;0.00;0.62;0.00;0.00;0.62;5.07;3.53;;;22.80;33.70;;;;;;2259929;61;20361;-64
2022/05/26 05:41:07;0.00;0.00;0.62;0.00;0.00;0.62;4.00;3.47;;;22.80;33.70;;;;;;2259709;61;20376;-64
2022/05/26 05:43:51;0.00;0.00;0.62;0.00;0.00;0.62;3.57;3.13;;;22.80;33.60;;;;;;2261130;61;20495;-64
2022/05/26 05:46:57;0.00;0.00;0.62;0.00;0.00;0.62;4.20;3.23;;;22.80;33.60;;;;;;2259552;61;20389;-64
2022/05/26 05:49:41;0.00;0.00;0.62;0.00;0.00;0.62;5.23;3.00;;;22.80;33.50;;;;;;2261213;61;20403;-64
2022/05/26 05:52:26;0.00;0.00;0.62;0.00;0.00;0.62;7.33;3.30;;;22.80;33.40;;;;;;2260131;61;20419;-64
2022/05/26 05:55:10;0.00;0.00;0.62;0.00;0.00;0.62;3.93;2.80;;;22.90;33.60;;;;;;2260595;61;20445;-64
2022/05/26 05:57:55;0.00;0.00;0.62;0.00;0.00;0.62;3.60;2.80;;;22.90;33.60;;;;;;2261011;61;20916;-64
2022/05/26 06:00:41;0.00;0.00;0.62;0.00;0.00;0.62;4.00;3.20;;;22.90;33.50;;;;;;2259515;61;20361;-63
2022/05/26 06:03:33;0.00;0.00;0.62;0.00;0.00;0.62;4.03;3.33;;;22.90;33.60;;;;;;2260671;61;20364;-65
2022/05/26 06:06:17;0.00;0.00;0.62;0.00;0.00;0.62;3.90;3.40;;;22.90;33.90;;;;;;2260407;61;20393;-64
2022/05/26 06:09:02;0.00;0.00;0.62;0.00;0.00;0.62;7.33;3.53;;;22.90;33.90;;;;;;2260032;61;20356;-64
2022/05/26 06:11:49;0.00;0.00;0.62;0.00;0.00;0.62;2.90;2.70;;;22.90;34.00;;;;;;2260498;61;20365;-67
2022/05/26 06:14:34;0.00;0.00;0.62;0.00;0.00;0.62;5.33;3.30;;;22.90;33.90;;;;;;2259578;61;20453;-64
2022/05/26 06:17:19;0.00;0.00;0.62;0.00;0.00;0.62;3.00;2.70;;;23.00;34.00;;;;;;2259600;61;20456;-64
2022/05/26 06:20:09;0.00;0.00;0.62;0.00;0.00;0.62;3.10;2.80;;;22.90;34.10;;;;;;2260310;61;20957;-62
2022/05/26 06:22:54;0.00;0.00;0.62;0.00;0.00;0.62;4.23;3.30;;;22.90;34.00;;;;;;2259545;61;20776;-65
2022/05/26 06:25:39;0.00;0.00;0.62;0.00;0.00;0.62;7.40;3.47;;;23.00;34.30;;;;;;2260191;61;20447;-65
2022/05/26 06:37:13;0.00;0.00;0.62;0.00;0.00;0.62;5.23;3.57;;;23.00;34.50;;;;;;2259187;61;20842;-56
2022/05/26 06:37:53;0.00;0.00;0.62;0.00;0.00;0.62;3.37;2.57;;;22.90;34.50;;;;;;2256822;61;20376;-61
2022/05/26 06:40:38;0.00;0.00;0.62;0.00;0.00;0.62;7.60;3.93;;;22.90;34.50;;;;;;2259780;61;20385;-59
2022/05/26 06:43:22;0.00;0.00;0.62;0.00;0.00;0.62;3.83;2.80;;;22.90;34.50;;;;;;2260334;61;20376;-56
2022/05/26 06:46:07;0.00;0.00;0.62;0.00;0.00;0.62;4.60;3.90;;;22.90;34.60;;;;;;2259845;61;20436;-63
2022/05/26 06:48:52;0.00;0.00;0.62;0.00;0.00;0.62;5.03;3.50;;;23.00;34.80;;;;;;2260553;61;20452;-60
2022/05/26 06:51:39;0.00;0.00;0.62;0.00;0.00;0.62;4.10;3.53;;;23.00;34.80;;;;;;2259846;61;20960;-58
2022/05/26 06:54:25;0.00;0.00;0.62;0.00;0.00;0.62;4.70;3.10;;;23.00;34.90;;;;;;2259800;61;20905;-58
2022/05/26 06:57:11;0.00;0.00;0.62;0.00;0.00;0.62;7.03;4.27;;;23.00;35.00;;;;;;2260345;61;20377;-61
2022/05/26 06:59:56;0.00;0.00;0.62;0.00;0.00;0.62;5.00;3.57;;;23.00;34.90;;;;;;2257227;61;20965;-61
2022/05/26 07:02:41;0.00;0.00;0.62;0.00;0.00;0.62;5.50;3.67;;;23.00;34.90;;;;;;2255589;61;20365;-63
2022/05/26 07:05:25;0.00;0.00;0.62;0.00;0.00;0.62;6.03;4.47;;;23.10;35.00;;;;;;2260211;61;20409;-57
2022/05/26 07:08:10;0.00;0.00;0.62;0.00;0.00;0.62;5.60;3.63;;;23.10;35.00;;;;;;2256006;61;20898;-57
2022/05/26 07:11:00;0.00;0.00;0.62;0.00;0.00;0.62;4.60;3.30;;;23.10;35.00;;;;;;2256470;61;21040;-59
2022/05/26 07:13:45;0.00;0.00;0.62;0.00;0.00;0.62;5.43;4.40;;;23.10;35.00;;;;;;2259756;61;20373;-64
2022/05/26 07:16:30;0.00;0.00;0.62;0.00;0.00;0.62;7.10;4.00;;;23.20;35.00;;;;;;2259740;61;20381;-62
2022/05/26 07:19:16;0.00;0.00;0.62;0.00;0.00;0.62;4.13;3.13;;;23.20;35.00;;;;;;2260602;61;20909;-50
2022/05/26 07:22:00;0.00;0.00;0.62;0.00;0.00;0.62;5.13;4.60;;;23.20;35.00;;;;;;2258512;61;20357;-60
2022/05/26 07:24:48;0.00;0.00;0.62;0.00;0.00;0.62;6.10;3.70;;;23.20;35.00;;;;;;2260092;61;20380;-54
2022/05/26 07:27:34;0.00;0.00;0.62;0.00;0.00;0.62;5.67;3.87;;;23.30;35.00;;;;;;2260571;61;20912;-56
2022/05/26 07:30:20;0.00;0.00;0.62;0.00;0.00;0.62;9.50;3.60;;;23.30;35.00;;;;;;2259991;61;20908;-58
2022/05/26 07:33:07;0.00;0.00;0.62;0.00;0.00;0.62;4.63;3.70;;;23.30;35.00;;;;;;2261242;61;20392;-59
2022/05/26 07:35:54;0.00;0.00;0.62;0.00;0.00;0.62;3.77;3.30;;;23.30;34.90;;;;;;2261332;61;20385;-54
2022/05/26 07:41:46;0.00;0.00;0.62;0.00;0.00;0.62;7.07;4.47;;;23.40;35.00;;;;;;2260054;61;20372;-58
2022/05/26 07:44:36;0.00;0.00;0.62;0.00;0.00;0.62;4.50;3.63;;;23.40;34.90;;;;;;2259591;61;20423;-56
2022/05/26 07:47:22;0.00;0.00;0.62;0.00;0.00;0.62;4.00;3.20;;;23.50;34.90;;;;;;2259995;61;20803;-60
2022/05/26 07:50:11;0.00;0.00;0.62;0.00;0.00;0.62;4.90;3.60;;;23.50;34.80;;;;;;2260635;61;20981;-60
2022/05/26 07:52:56;0.00;0.00;0.62;0.00;0.00;0.62;4.80;3.60;;;23.50;34.70;;;;;;2259678;61;20361;-58
2022/05/26 07:55:42;0.00;0.00;0.62;0.00;0.00;0.62;5.20;3.80;;;23.60;34.70;;;;;;2260293;61;20381;-58
2022/05/26 07:58:27;0.00;0.00;0.62;0.00;0.00;0.62;3.77;3.37;;;23.60;34.60;;;;;;2259904;61;20445;-61
2022/05/26 08:01:14;0.00;0.00;0.62;0.00;0.00;0.62;4.00;3.10;;;23.70;34.60;;;;;;2259104;61;20815;-61
2022/05/26 08:03:59;0.00;0.00;0.62;0.00;0.00;0.62;4.10;3.20;;;23.70;34.60;;;;;;2259701;61;20408;-59
2022/05/26 08:06:47;0.00;0.00;0.62;0.00;0.00;0.62;3.83;3.10;;;23.70;34.50;;;;;;2258710;61;20397;-59
2022/05/26 08:09:32;0.00;0.00;0.62;0.00;0.00;0.62;3.10;2.80;;;23.80;34.50;;;;;;2260150;61;20491;-59
2022/05/26 08:12:16;0.00;0.00;0.62;0.00;0.00;0.62;3.90;2.60;;;23.80;34.40;;;;;;2259915;61;20407;-60
2022/05/26 08:15:01;0.00;0.00;0.62;0.00;0.00;0.62;3.50;3.20;;;23.80;34.30;;;;;;2259667;61;20364;-57
2022/05/26 08:17:47;0.00;0.00;0.62;0.00;0.00;0.62;2.83;2.63;;;23.90;34.40;;;;;;2261242;61;20372;-60
2022/05/26 08:20:32;0.00;0.00;0.62;0.00;0.00;0.62;4.13;2.73;;;23.90;34.30;;;;;;2259974;61;20377;-62
2022/05/26 08:23:22;0.00;0.00;0.62;0.00;0.00;0.62;3.30;2.70;;;23.90;34.30;;;;;;2259853;61;20411;-57
2022/05/26 08:26:07;0.00;0.00;0.62;0.00;0.00;0.62;6.80;4.10;;;24.00;34.30;;;;;;2260331;61;20796;-60
2022/05/26 08:28:52;0.00;0.00;0.62;0.00;0.00;0.62;4.23;3.83;;;24.00;34.20;;;;;;2259864;61;20457;-58
2022/05/26 08:31:37;0.00;0.00;0.62;0.00;0.00;0.62;3.97;3.37;;;24.10;34.20;;;;;;2260335;61;20369;-64
2022/05/26 08:34:23;0.00;0.00;0.62;0.00;0.00;0.62;4.93;3.63;;;24.10;34.20;;;;;;2260489;61;20767;-58
2022/05/26 08:37:13;0.00;0.00;0.62;0.00;0.00;0.62;5.07;2.93;;;24.10;34.00;;;;;;2258958;61;20519;-58
2022/05/26 08:39:58;0.00;0.00;0.62;0.00;0.00;0.62;4.30;3.13;;;24.10;33.90;;;;;;2260842;61;20360;-57
2022/05/26 08:42:43;0.00;0.00;0.62;0.00;0.00;0.62;4.07;3.00;;;24.20;33.80;;;;;;2259532;61;20377;-59
2022/05/26 08:45:30;0.00;0.00;0.62;0.00;0.00;0.62;3.50;2.80;;;24.20;33.50;;;;;;2259986;61;20388;-68
2022/05/26 08:48:33;0.00;0.00;0.62;0.00;0.00;0.62;3.70;2.50;;;24.20;33.40;;;;;;2260404;61;20956;-60
2022/05/26 08:51:29;0.00;0.00;0.62;0.00;0.00;0.62;5.20;3.23;;;24.20;33.40;;;;;;2258828;61;20388;-55
2022/05/26 08:54:23;0.00;0.00;0.62;0.00;0.00;0.62;4.27;3.50;;;24.30;33.30;;;;;;2260215;61;20373;-59
2022/05/26 08:57:14;0.00;0.00;0.62;0.00;0.00;0.62;4.90;2.80;;;24.30;33.20;;;;;;2259739;61;20420;-58
2022/05/26 08:59:59;0.00;0.00;0.62;0.00;0.00;0.62;5.87;3.30;;;24.40;33.10;;;;;;2259656;61;20944;-59
2022/05/26 09:02:45;0.00;0.00;0.62;0.00;0.00;0.62;4.57;3.17;;;24.40;33.00;;;;;;2259843;61;20419;-63
2022/05/26 09:05:38;0.00;0.00;0.62;0.00;0.00;0.62;6.10;3.60;;;24.50;33.00;;;;;;2258806;61;20443;-57
2022/05/26 09:14:27;0.00;0.00;0.62;0.00;0.00;0.62;5.47;3.10;;;24.50;32.60;;;;;;2259182;61;20357;-57
2022/05/26 09:17:13;0.00;0.00;0.62;0.00;0.00;0.62;6.33;3.00;;;24.60;32.60;;;;;;2259990;61;20381;-59
2022/05/26 09:20:02;0.00;0.00;0.62;0.00;0.00;0.62;3.83;2.60;;;24.60;32.60;;;;;;2259553;61;20392;-60
2022/05/26 09:22:47;0.00;0.00;0.62;0.00;0.00;0.62;4.20;2.50;;;24.60;32.30;;;;;;2259886;61;20365;-61
2022/05/26 09:25:39;0.00;0.00;0.62;0.00;0.00;0.62;5.37;3.47;;;24.70;32.30;;;;;;2259716;61;20443;-57
2022/05/26 09:28:32;0.00;0.00;0.62;0.00;0.00;0.62;3.67;2.53;;;24.70;32.10;;;;;;2257084;61;20837;-62
2022/05/26 09:31:22;0.00;0.00;0.62;0.00;0.00;0.62;5.20;2.53;;;24.70;31.80;;;;;;2349083;53;20424;-59
2022/05/26 09:34:14;0.00;0.00;0.62;0.00;0.00;0.62;4.20;2.43;;;24.70;31.80;;;;;;2255784;61;20408;-57
2022/05/26 09:37:02;0.00;0.00;0.62;0.00;0.00;0.62;2.50;2.30;;;24.80;31.80;;;;;;2255371;61;20914;-58
2022/05/26 09:39:47;0.00;0.00;0.62;0.00;0.00;0.62;3.27;2.30;;;24.80;31.80;;;;;;2255782;61;20445;-59
2022/05/26 09:42:40;0.00;0.00;0.62;0.00;0.00;0.62;3.13;2.37;;;24.80;31.70;;;;;;2255195;61;20412;-58
2022/05/26 09:45:27;0.00;0.00;0.62;0.00;0.00;0.62;5.90;2.50;;;24.80;31.70;;;;;;2261185;61;20441;-58
2022/05/26 09:48:26;0.00;0.00;0.62;0.00;0.00;0.62;5.30;2.20;;;24.80;31.60;;;;;;2256397;61;20412;-58
2022/05/26 09:51:20;0.00;0.00;0.62;0.00;0.00;0.62;4.17;2.60;;;24.90;31.70;;;;;;2255603;61;20361;-54
2022/05/26 09:54:24;0.00;0.00;0.62;0.00;0.00;0.62;2.70;2.27;;;24.90;31.50;;;;;;2256225;61;20845;-57
2022/05/26 09:57:17;0.00;0.00;0.62;0.00;0.00;0.62;4.40;2.10;;;24.90;31.50;;;;;;2255962;61;20381;-61
2022/05/26 10:00:14;0.00;0.00;0.62;0.00;0.00;0.62;3.47;2.80;;;25.00;31.50;;;;;;2256427;61;20466;-57
2022/05/26 10:03:01;0.00;0.00;0.62;0.00;0.00;0.62;3.37;2.43;;;25.00;31.50;;;;;;2256848;61;20362;-55
2022/05/26 10:06:06;0.00;0.00;0.62;0.00;0.00;0.62;4.67;2.40;;;25.00;31.40;;;;;;2256075;61;20390;-58
2022/05/26 10:09:19;0.00;0.00;0.62;0.00;0.00;0.62;3.40;2.13;;;25.10;31.40;;;;;;2256733;61;20396;-61
2022/05/26 10:12:12;0.00;0.00;0.62;0.00;0.00;0.62;2.67;1.83;;;25.10;31.30;;;;;;2255693;61;21039;-59
2022/05/26 10:15:20;0.00;0.00;0.62;0.00;0.00;0.62;2.50;2.30;;;25.10;31.20;;;;;;2256412;61;20445;-58
2022/05/26 10:18:31;0.00;0.00;0.62;0.00;0.00;0.62;3.33;2.10;;;25.20;31.10;;;;;;2256386;61;20370;-60
2022/05/26 10:21:31;0.00;0.00;0.62;0.00;0.00;0.62;3.23;1.83;;;25.20;31.00;;;;;;2255602;61;20428;-62
2022/05/26 10:24:43;0.00;0.00;0.62;0.00;0.00;0.62;4.40;1.97;;;25.30;31.00;;;;;;2256925;61;20366;-59
2022/05/26 10:27:41;0.00;0.00;0.62;0.00;0.00;0.62;3.37;1.87;;;25.30;31.00;;;;;;2255835;61;20397;-55
2022/05/26 10:30:39;0.00;0.00;0.62;0.00;0.00;0.62;2.90;1.83;;;25.30;31.00;;;;;;2258060;61;20364;-57
2022/05/26 10:33:59;0.00;0.00;0.62;0.00;0.00;0.62;2.67;1.60;;;25.30;31.00;;;;;;2260263;61;20368;-54
2022/05/26 10:37:00;0.00;0.00;0.62;0.00;0.00;0.62;3.70;1.90;;;25.40;31.00;;;;;;2259470;61;20836;-62
2022/05/26 10:40:02;0.00;0.00;0.62;0.00;0.00;0.62;2.13;1.87;;;25.40;31.00;;;;;;2260573;61;20365;-60
2022/05/26 10:42:54;0.00;0.00;0.62;0.00;0.00;0.62;4.00;1.80;;;25.40;31.00;;;;;;2259508;61;20913;-61
2022/05/26 10:45:43;0.00;0.00;0.62;0.00;0.00;0.62;2.20;1.60;;;25.50;31.00;;;;;;2260794;61;20389;-59
2022/05/26 10:48:36;0.00;0.00;0.62;0.00;0.00;0.62;1.60;1.23;;;25.50;31.00;;;;;;2260106;61;20366;-62
2022/05/26 10:51:25;0.00;0.00;0.62;0.00;0.00;0.62;2.10;1.40;;;25.50;31.00;;;;;;2259879;61;20453;-57
2022/05/26 10:54:18;0.00;0.00;0.62;0.00;0.00;0.62;1.70;1.30;;;25.60;31.10;;;;;;2260398;61;20361;-61
2022/05/26 10:57:09;0.00;0.00;0.62;0.00;0.00;0.62;2.47;1.53;;;25.70;31.00;;;;;;2259327;61;20952;-59
2022/05/26 11:00:02;0.00;0.00;0.62;0.00;0.00;0.62;3.00;1.60;;;25.70;31.00;;;;;;2259836;61;20451;-60
2022/05/26 11:02:57;0.00;0.00;0.62;0.00;0.00;0.62;2.67;1.57;;;25.70;30.90;;;;;;2260089;61;20422;-62
2022/05/26 11:05:46;0.00;0.00;0.62;0.00;0.00;0.62;2.77;1.90;;;25.80;30.90;;;;;;2259807;61;20478;-60
2022/05/26 11:08:38;0.00;0.00;0.62;0.00;0.00;0.62;3.70;2.00;;;25.80;30.80;;;;;;2260427;61;20835;-61
2022/05/26 11:11:33;0.00;0.00;0.62;0.00;0.00;0.62;3.60;1.40;;;25.80;30.70;;;;;;2259054;61;20822;-55
2022/05/26 11:17:42;0.00;0.00;0.62;0.00;0.00;0.62;3.07;1.70;;;25.90;30.60;;;;;;2259678;61;20475;-61
2022/05/26 11:20:34;0.00;0.00;0.62;0.00;0.00;0.62;2.27;1.10;;;25.90;30.60;;;;;;2259704;61;20411;-62
2022/05/26 11:23:19;0.00;0.00;0.62;0.00;0.00;0.62;2.60;1.43;;;26.00;30.70;;;;;;2259927;61;20392;-63
2022/05/26 11:26:11;0.00;0.00;0.62;0.00;0.00;0.62;1.70;1.43;;;26.00;30.70;;;;;;2259576;61;20401;-61
2022/05/26 11:29:05;0.00;0.00;0.62;0.00;0.00;0.62;1.90;1.27;;;26.00;30.70;;;;;;2260401;61;20365;-60
2022/05/26 11:38:31;0.00;0.00;0.62;0.00;0.00;0.62;2.20;1.40;;;26.10;30.80;;;;;;2260071;61;20768;-58
2022/05/26 11:41:27;0.00;0.00;0.62;0.00;0.00;0.62;2.43;1.23;;;26.20;30.80;;;;;;2259184;61;20387;-61